createdAt,value
2018-01-08T00:00:14.569Z,9.05
2018-01-08T00:01:17.090Z,10.77
2018-01-08T00:02:19.609Z,10.30
2018-01-08T00:03:22.170Z,9.50
2018-01-08T00:04:24.689Z,10.60
2018-01-08T00:05:27.220Z,9.48
2018-01-08T00:06:30.505Z,9.73
2018-01-08T00:07:33.802Z,9.52
2018-01-08T00:08:37.136Z,8.40
2018-01-08T00:09:39.659Z,9.13
2018-01-08T00:10:42.194Z,9.63
2018-01-08T00:11:44.709Z,9.32
2018-01-08T00:12:47.268Z,10.35
2018-01-08T00:13:49.786Z,9.90
2018-01-08T00:14:52.317Z,9.65
2018-01-08T00:15:54.856Z,10.48
2018-01-08T00:16:57.385Z,10.00
2018-01-08T00:17:59.957Z,10.48
2018-01-08T00:19:02.484Z,9.00
2018-01-08T00:20:04.997Z,9.27
2018-01-08T00:22:16.324Z,10.77
2018-01-08T00:23:18.886Z,9.35
2018-01-08T00:24:21.404Z,9.20
2018-01-08T00:25:24.696Z,8.60
2018-01-08T00:26:27.979Z,8.43
2018-01-08T00:27:31.273Z,8.82
2018-01-08T00:28:34.691Z,8.32
2018-01-08T00:29:37.257Z,9.07
2018-01-08T00:30:39.781Z,8.30
2018-01-08T00:31:43.071Z,7.97
2018-01-08T00:32:46.361Z,8.95
2018-01-08T00:33:49.646Z,8.60
2018-01-08T00:34:52.957Z,8.02
2018-01-08T00:35:55.477Z,8.45
2018-01-08T00:36:58.764Z,9.05
2018-01-08T00:38:02.082Z,7.80
2018-01-08T00:39:04.592Z,7.37
2018-01-08T00:40:07.121Z,9.10
2018-01-08T00:41:09.637Z,8.48
2018-01-08T00:42:12.933Z,8.60
2018-01-08T00:43:16.249Z,8.68
2018-01-08T00:44:18.760Z,8.30
2018-01-08T00:45:21.285Z,9.30
2018-01-08T00:46:23.810Z,7.90
2018-01-08T00:47:27.146Z,8.75
2018-01-08T00:48:29.691Z,7.90
2018-01-08T00:49:32.209Z,8.07
2018-01-08T00:50:34.794Z,8.40
2018-01-08T00:51:38.133Z,8.13
2018-01-08T00:52:40.661Z,8.70
2018-01-08T00:53:43.943Z,8.48
2018-01-08T00:54:47.237Z,8.23
2018-01-08T00:55:49.761Z,8.68
2018-01-08T00:56:52.306Z,8.90
2018-01-08T00:57:54.831Z,8.45
2018-01-08T00:58:57.380Z,8.02
2018-01-08T01:00:00.679Z,8.60
2018-01-08T01:01:03.205Z,8.90
2018-01-08T01:02:05.765Z,8.82
2018-01-08T01:03:08.293Z,9.75
2018-01-08T01:04:10.800Z,9.75
2018-01-08T01:05:13.314Z,8.77
2018-01-08T01:06:15.828Z,10.75
2018-01-08T01:07:18.417Z,10.15
2018-01-08T01:08:20.941Z,9.05
2018-01-08T01:09:23.476Z,8.75
2018-01-08T01:10:26.050Z,9.75
2018-01-08T01:11:28.578Z,9.38
2018-01-08T01:12:31.098Z,9.07
2018-01-08T01:13:33.625Z,8.88
2018-01-08T01:14:36.945Z,7.75
2018-01-08T01:15:39.477Z,8.00
2018-01-08T01:16:42.815Z,8.73
2018-01-08T01:17:45.337Z,8.30
2018-01-08T01:18:48.628Z,7.97
2018-01-08T01:19:51.145Z,9.02
2018-01-08T01:20:53.667Z,8.82
2018-01-08T01:21:56.233Z,8.38
2018-01-08T01:22:58.764Z,9.30
2018-01-08T01:24:01.280Z,8.85
2018-01-08T01:25:03.814Z,8.98
2018-01-08T01:26:07.110Z,8.05
2018-01-08T01:27:09.673Z,8.45
2018-01-08T01:28:12.199Z,9.52
2018-01-08T01:29:14.713Z,8.77
2018-01-08T01:30:17.258Z,8.00
2018-01-08T01:31:20.537Z,8.63
2018-01-08T01:32:23.849Z,9.32
2018-01-08T01:33:26.367Z,9.00
2018-01-08T01:34:28.884Z,8.90
2018-01-08T01:35:31.443Z,10.13
2018-01-08T01:36:33.965Z,7.85
2018-01-08T01:37:36.482Z,9.50
2018-01-08T01:38:39.057Z,9.18
2018-01-08T01:39:41.575Z,10.00
2018-01-08T01:40:44.860Z,8.60
2018-01-08T01:41:48.142Z,8.57
2018-01-08T01:42:51.439Z,7.85
2018-01-08T01:43:54.755Z,9.30
2018-01-08T01:44:57.284Z,8.85
2018-01-08T01:46:00.583Z,9.07
2018-01-08T01:47:03.112Z,9.02
2018-01-08T01:48:05.633Z,8.82
2018-01-08T01:49:20.137Z,9.10
2018-01-08T01:50:23.424Z,8.30
2018-01-08T01:51:26.713Z,9.52
2018-01-08T01:52:29.993Z,9.55
2018-01-08T01:53:33.333Z,9.05
2018-01-08T01:54:35.854Z,8.50
2018-01-08T01:55:39.149Z,8.05
2018-01-08T01:56:41.669Z,9.35
2018-01-08T01:57:44.180Z,8.80
2018-01-08T01:58:46.822Z,8.82
2018-01-08T01:59:49.338Z,9.13
2018-01-08T02:00:51.860Z,8.43
2018-01-08T02:01:55.165Z,8.68
2018-01-08T02:02:57.686Z,8.20
2018-01-08T02:04:00.247Z,8.15
2018-01-08T02:05:02.775Z,8.05
2018-01-08T02:06:05.301Z,8.10
2018-01-08T02:07:07.829Z,8.73
2018-01-08T02:08:10.349Z,9.00
2018-01-08T02:09:13.684Z,8.30
2018-01-08T02:10:16.255Z,8.60
2018-01-08T02:11:18.773Z,8.40
2018-01-08T02:12:21.296Z,8.98
2018-01-08T02:13:23.814Z,7.90
2018-01-08T02:14:26.403Z,7.70
2018-01-08T02:15:28.916Z,8.65
2018-01-08T02:16:31.448Z,9.48
2018-01-08T02:17:33.962Z,9.10
2018-01-08T02:18:37.256Z,8.80
2018-01-08T02:19:39.804Z,9.50
2018-01-08T02:20:43.097Z,8.25
2018-01-08T02:21:46.379Z,9.35
2018-01-08T02:22:49.658Z,9.98
2018-01-08T02:23:52.972Z,8.13
2018-01-08T02:24:55.500Z,8.90
2018-01-08T02:25:58.820Z,8.90
2018-01-08T02:27:01.343Z,7.82
2018-01-08T02:28:03.863Z,8.35
2018-01-08T02:29:06.377Z,8.75
2018-01-08T02:30:08.893Z,8.55
2018-01-08T02:31:11.462Z,9.05
2018-01-08T02:32:13.981Z,8.10
2018-01-08T02:33:17.272Z,8.80
2018-01-08T02:34:20.563Z,8.40
2018-01-08T02:35:23.096Z,8.25
2018-01-08T02:36:25.661Z,8.18
2018-01-08T02:37:28.174Z,7.65
2018-01-08T02:38:30.685Z,9.25
2018-01-08T02:39:33.214Z,9.52
2018-01-08T02:40:35.733Z,8.50
2018-01-08T02:41:38.324Z,8.75
2018-01-08T02:42:41.619Z,8.88
2018-01-08T02:43:44.136Z,8.38
2018-01-08T02:44:46.646Z,9.05
2018-01-08T02:45:49.173Z,9.00
2018-01-08T02:46:51.724Z,8.90
2018-01-08T02:47:54.288Z,9.10
2018-01-08T02:48:56.808Z,8.85
2018-01-08T02:49:59.334Z,9.48
2018-01-08T02:51:01.871Z,8.95
2018-01-08T02:52:04.393Z,9.50
2018-01-08T02:53:07.711Z,9.10
2018-01-08T02:54:10.232Z,9.25
2018-01-08T02:55:13.521Z,7.82
2018-01-08T02:56:16.802Z,8.40
2018-01-08T02:57:20.120Z,8.95
2018-01-08T02:58:22.670Z,9.18
2018-01-08T02:59:25.958Z,9.30
2018-01-08T03:00:28.481Z,9.35
2018-01-08T03:01:31.012Z,8.73
2018-01-08T03:02:33.582Z,8.30
2018-01-08T03:03:36.105Z,8.63
2018-01-08T03:04:39.384Z,8.98
2018-01-08T03:05:42.677Z,8.70
2018-01-08T03:06:45.974Z,9.18
2018-01-08T03:07:48.536Z,8.40
2018-01-08T03:08:51.837Z,8.57
2018-01-08T03:09:54.349Z,8.70
2018-01-08T03:10:56.871Z,8.45
2018-01-08T03:11:59.402Z,8.63
2018-01-08T03:13:02.731Z,9.10
2018-01-08T03:14:05.249Z,8.68
2018-01-08T03:15:07.765Z,9.35
2018-01-08T03:16:10.293Z,9.07
2018-01-08T03:17:13.580Z,10.02
2018-01-08T03:18:16.906Z,9.38
2018-01-08T03:19:19.442Z,9.02
2018-01-08T03:20:21.965Z,8.85
2018-01-08T03:21:24.495Z,8.95
2018-01-08T03:22:27.025Z,8.82
2018-01-08T03:23:30.338Z,8.80
2018-01-08T03:24:32.897Z,8.10
2018-01-08T03:25:35.413Z,8.25
2018-01-08T03:26:37.966Z,8.38
2018-01-08T03:27:40.493Z,9.02
2018-01-08T03:28:43.152Z,8.52
2018-01-08T03:29:45.809Z,8.00
2018-01-08T03:30:49.098Z,8.18
2018-01-08T03:31:52.372Z,8.70
2018-01-08T03:32:55.669Z,8.95
2018-01-08T03:33:58.228Z,8.10
2018-01-08T03:35:01.565Z,8.13
2018-01-08T03:36:04.116Z,8.55
2018-01-08T03:37:06.637Z,8.88
2018-01-08T03:38:09.921Z,9.13
2018-01-08T03:39:13.209Z,8.25
2018-01-08T03:40:16.528Z,8.35
2018-01-08T03:41:19.044Z,9.15
2018-01-08T03:42:21.594Z,8.43
2018-01-08T03:43:24.126Z,8.05
2018-01-08T03:44:26.644Z,8.43
2018-01-08T03:45:29.161Z,8.20
2018-01-08T03:46:31.716Z,8.07
2018-01-08T03:47:34.273Z,8.55
2018-01-08T03:48:36.798Z,7.40
2018-01-08T03:49:39.314Z,8.35
2018-01-08T03:50:41.832Z,8.32
2018-01-08T03:51:44.397Z,9.30
2018-01-08T03:52:46.916Z,8.52
2018-01-08T03:53:49.430Z,7.72
2018-01-08T03:54:51.941Z,7.07
2018-01-08T03:55:54.461Z,8.60
2018-01-08T03:56:57.019Z,8.68
2018-01-08T03:57:59.537Z,9.02
2018-01-08T03:59:02.060Z,9.77
2018-01-08T04:00:04.577Z,8.43
2018-01-08T04:01:07.103Z,7.87
2018-01-08T04:02:10.426Z,7.18
2018-01-08T04:03:12.951Z,7.70
2018-01-08T04:04:16.241Z,7.00
2018-01-08T04:05:19.525Z,7.15
2018-01-08T04:06:22.808Z,6.78
2018-01-08T04:07:26.137Z,6.93
2018-01-08T04:08:28.657Z,7.87
2018-01-08T04:09:31.937Z,6.75
2018-01-08T04:10:34.454Z,7.82
2018-01-08T04:11:37.004Z,6.95
2018-01-08T04:12:39.533Z,8.23
2018-01-08T04:13:42.054Z,6.95
2018-01-08T04:14:44.569Z,7.10
2018-01-08T04:15:47.126Z,7.18
2018-01-08T04:16:49.668Z,7.18
2018-01-08T04:17:52.182Z,7.15
2018-01-08T04:18:55.500Z,7.07
2018-01-08T04:19:58.037Z,7.70
2018-01-08T04:21:00.678Z,8.30
2018-01-08T04:22:03.196Z,7.75
2018-01-08T04:23:05.711Z,6.82
2018-01-08T04:24:08.234Z,8.07
2018-01-08T04:25:10.758Z,8.40
2018-01-08T04:26:14.082Z,8.23
2018-01-08T04:27:16.604Z,8.10
2018-01-08T04:28:19.881Z,7.95
2018-01-08T04:29:23.213Z,8.02
2018-01-08T04:30:25.730Z,7.35
2018-01-08T04:31:28.278Z,7.43
2018-01-08T04:32:30.788Z,6.97
2018-01-08T04:33:33.305Z,7.40
2018-01-08T04:34:35.881Z,7.18
2018-01-08T04:35:38.405Z,6.80
2018-01-08T04:36:40.916Z,7.12
2018-01-08T04:37:43.450Z,7.55
2018-01-08T04:38:45.968Z,6.78
2018-01-08T04:39:49.302Z,7.45
2018-01-08T04:40:51.817Z,6.60
2018-01-08T04:41:55.109Z,7.65
2018-01-08T04:42:58.397Z,7.07
2018-01-08T04:44:00.925Z,6.45
2018-01-08T04:45:03.478Z,7.47
2018-01-08T04:46:05.991Z,7.35
2018-01-08T04:47:09.274Z,7.70
2018-01-08T04:48:11.810Z,7.25
2018-01-08T04:49:14.324Z,7.30
2018-01-08T04:50:16.893Z,8.02
2018-01-08T04:51:19.412Z,8.05
2018-01-08T04:52:21.929Z,8.65
2018-01-08T04:53:24.461Z,7.95
2018-01-08T04:54:27.750Z,7.85
2018-01-08T04:55:31.121Z,8.80
2018-01-08T04:56:34.435Z,8.30
2018-01-08T04:57:36.957Z,8.57
2018-01-08T04:58:39.481Z,9.20
2018-01-08T04:59:42.051Z,9.07
2018-01-08T05:00:44.598Z,8.90
2018-01-08T05:01:47.117Z,8.98
2018-01-08T05:02:49.657Z,8.40
2018-01-08T05:03:52.181Z,8.02
2018-01-08T05:04:55.478Z,8.95
2018-01-08T05:05:58.014Z,9.05
2018-01-08T05:07:00.534Z,8.65
2018-01-08T05:08:03.089Z,9.10
2018-01-08T05:09:05.609Z,8.27
2018-01-08T05:10:08.116Z,8.38
2018-01-08T05:11:10.669Z,9.10
2018-01-08T05:12:13.195Z,9.30
2018-01-08T05:13:15.706Z,8.85
2018-01-08T05:14:18.221Z,8.90
2018-01-08T05:15:20.738Z,8.80
2018-01-08T05:16:23.300Z,8.98
2018-01-08T05:17:25.832Z,9.20
2018-01-08T05:18:28.358Z,7.20
2018-01-08T05:19:30.953Z,8.15
2018-01-08T05:20:33.457Z,6.57
2018-01-08T05:21:36.772Z,7.40
2018-01-08T05:22:39.298Z,8.70
2018-01-08T05:23:42.586Z,9.23
2018-01-08T05:24:45.901Z,9.45
2018-01-08T05:25:48.448Z,10.10
2018-01-08T05:26:51.732Z,9.38
2018-01-08T05:27:54.260Z,10.45
2018-01-08T05:28:56.781Z,8.90
2018-01-08T05:29:59.346Z,9.90
2018-01-08T05:31:01.864Z,10.18
2018-01-08T05:32:04.382Z,9.45
2018-01-08T05:33:06.913Z,8.70
2018-01-08T05:34:10.196Z,8.70
2018-01-08T05:35:13.526Z,7.50
2018-01-08T05:36:16.047Z,7.87
2018-01-08T05:37:19.338Z,10.20
2018-01-08T05:38:22.636Z,9.85
2018-01-08T05:39:25.165Z,11.12
2018-01-08T05:40:27.724Z,11.23
2018-01-08T05:41:30.288Z,8.80
2018-01-08T05:42:33.706Z,8.48
2018-01-08T05:43:36.998Z,8.32
2018-01-08T05:44:40.308Z,8.07
2018-01-08T05:45:42.832Z,9.85
2018-01-08T05:46:46.139Z,10.05
2018-01-08T05:47:48.704Z,7.62
2018-01-08T05:48:51.249Z,10.18
2018-01-08T05:49:54.541Z,10.20
2018-01-08T05:50:57.833Z,9.05
2018-01-08T05:52:00.660Z,8.32
2018-01-08T05:53:03.207Z,9.48
2018-01-08T05:54:05.721Z,9.30
2018-01-08T05:55:09.037Z,9.73
2018-01-08T05:56:11.551Z,9.75
2018-01-08T05:57:14.072Z,10.05
2018-01-08T05:58:16.630Z,9.57
2018-01-08T05:59:19.154Z,9.50
2018-01-08T06:00:22.498Z,9.40
2018-01-08T06:01:25.022Z,11.70
2018-01-08T06:02:28.313Z,10.50
2018-01-08T06:03:31.594Z,10.50
2018-01-08T06:04:34.878Z,10.10
2018-01-08T06:05:38.192Z,10.32
2018-01-08T06:06:40.713Z,10.50
2018-01-08T06:07:43.239Z,10.68
2018-01-08T06:08:45.776Z,10.57
2018-01-08T06:09:48.321Z,9.40
2018-01-08T06:10:51.760Z,9.95
2018-01-08T06:11:54.260Z,9.68
2018-01-08T06:12:56.788Z,10.45
2018-01-08T06:13:59.301Z,9.32
2018-01-08T06:15:02.636Z,9.85
2018-01-08T06:16:05.173Z,10.32
2018-01-08T06:17:07.710Z,10.85
2018-01-08T06:18:10.230Z,10.55
2018-01-08T06:19:12.773Z,10.27
2018-01-08T06:20:15.421Z,11.90
2018-01-08T06:21:18.705Z,9.52
2018-01-08T06:22:21.992Z,10.18
2018-01-08T06:23:25.278Z,9.10
2018-01-08T06:24:28.556Z,9.02
2018-01-08T06:25:31.882Z,9.77
2018-01-08T06:26:34.400Z,9.45
2018-01-08T06:27:37.679Z,10.35
2018-01-08T06:28:40.204Z,9.98
2018-01-08T06:29:42.725Z,10.95
2018-01-08T06:30:46.057Z,9.73
2018-01-08T06:31:48.595Z,11.27
2018-01-08T06:32:51.159Z,11.20
2018-01-08T06:33:54.421Z,10.15
2018-01-08T06:34:57.713Z,10.10
2018-01-08T06:36:01.037Z,9.52
2018-01-08T06:37:03.556Z,11.32
2018-01-08T06:38:06.833Z,9.85
2018-01-08T06:39:10.120Z,8.75
2018-01-08T06:40:13.400Z,10.50
2018-01-08T06:41:15.960Z,9.25
2018-01-08T06:42:18.584Z,9.85
2018-01-08T06:43:21.096Z,10.50
2018-01-08T06:44:23.629Z,10.63
2018-01-08T06:45:26.145Z,9.65
2018-01-08T06:46:29.444Z,12.52
2018-01-08T06:47:31.995Z,12.63
2018-01-08T06:48:34.525Z,10.70
2018-01-08T06:49:37.080Z,10.60
2018-01-08T06:50:39.603Z,10.50
2018-01-08T06:51:42.128Z,11.65
2018-01-08T06:52:44.650Z,11.35
2018-01-08T06:53:47.178Z,10.07
2018-01-08T06:54:50.500Z,10.73
2018-01-08T06:55:53.035Z,10.00
2018-01-08T06:56:56.323Z,10.32
2018-01-08T06:57:59.610Z,10.75
2018-01-08T06:59:02.893Z,10.25
2018-01-08T07:00:06.217Z,10.77
2018-01-08T07:01:08.734Z,10.70
2018-01-08T07:02:12.078Z,10.40
2018-01-08T07:03:14.598Z,12.15
2018-01-08T07:04:17.917Z,11.60
2018-01-08T07:05:20.433Z,11.85
2018-01-08T07:06:23.717Z,10.95
2018-01-08T07:07:27.006Z,10.60
2018-01-08T07:08:30.317Z,7.53
2018-01-08T07:09:32.878Z,7.85
2018-01-08T07:10:35.393Z,7.70
2018-01-08T07:11:37.961Z,8.25
2018-01-08T07:12:40.478Z,8.50
2018-01-08T07:13:43.001Z,8.68
2018-01-08T07:14:45.568Z,7.10
2018-01-08T07:15:48.080Z,7.65
2018-01-08T07:16:50.611Z,6.97
2018-01-08T07:17:53.907Z,7.37
2018-01-08T07:18:57.196Z,8.48
2018-01-08T07:20:00.529Z,7.53
2018-01-08T07:21:03.810Z,8.02
2018-01-08T07:22:06.325Z,7.97
2018-01-08T07:23:09.605Z,7.22
2018-01-08T07:24:12.886Z,7.80
2018-01-08T07:25:16.212Z,7.25
2018-01-08T07:26:18.725Z,7.53
2018-01-08T07:27:22.017Z,7.78
2018-01-08T07:28:25.304Z,7.55
2018-01-08T07:29:28.584Z,7.68
2018-01-08T07:30:31.896Z,8.77
2018-01-08T07:31:34.406Z,6.65
2018-01-08T07:32:36.974Z,7.90
2018-01-08T07:33:39.525Z,8.63
2018-01-08T07:34:42.043Z,7.10
2018-01-08T07:35:45.328Z,7.93
2018-01-08T07:36:48.611Z,7.25
2018-01-08T07:37:51.928Z,8.02
2018-01-08T07:38:54.462Z,7.80
2018-01-08T07:39:57.131Z,7.50
2018-01-08T07:41:00.408Z,6.95
2018-01-08T07:42:03.722Z,6.95
2018-01-08T07:43:06.284Z,7.18
2018-01-08T07:44:08.799Z,8.45
2018-01-08T07:45:11.332Z,7.93
2018-01-08T07:46:13.855Z,8.70
2018-01-08T07:47:17.144Z,7.97
2018-01-08T07:48:19.708Z,7.35
2018-01-08T07:49:22.990Z,7.40
2018-01-08T07:50:26.280Z,7.85
2018-01-08T07:51:29.615Z,8.80
2018-01-08T07:52:32.123Z,8.55
2018-01-08T07:53:35.446Z,8.23
2018-01-08T07:54:37.988Z,8.57
2018-01-08T07:55:40.669Z,8.70
2018-01-08T07:56:43.198Z,7.87
2018-01-08T07:57:45.713Z,7.85
2018-01-08T07:58:48.286Z,8.45
2018-01-08T07:59:50.797Z,7.78
2018-01-08T08:00:53.314Z,8.48
2018-01-08T08:01:55.828Z,7.90
2018-01-08T08:02:58.336Z,8.73
2018-01-08T08:04:00.900Z,8.43
2018-01-08T08:05:03.442Z,7.57
2018-01-08T08:06:06.720Z,7.45
2018-01-08T08:07:10.001Z,8.95
2018-01-08T08:08:13.277Z,8.60
2018-01-08T08:09:16.606Z,8.02
2018-01-08T08:10:19.125Z,8.18
2018-01-08T08:11:22.408Z,8.57
2018-01-08T08:12:25.701Z,7.93
2018-01-08T08:13:28.993Z,8.15
2018-01-08T08:14:32.308Z,8.35
2018-01-08T08:15:34.865Z,8.18
2018-01-08T08:16:37.407Z,8.38
2018-01-08T08:17:40.705Z,7.75
2018-01-08T08:18:43.220Z,8.90
2018-01-08T08:19:45.734Z,7.97
2018-01-08T08:20:48.293Z,7.37
2018-01-08T08:21:51.596Z,8.55
2018-01-08T08:22:54.112Z,7.60
2018-01-08T08:23:56.882Z,8.57
2018-01-08T08:24:59.398Z,8.77
2018-01-08T08:26:01.946Z,8.13
2018-01-08T08:27:05.230Z,8.40
2018-01-08T08:28:07.805Z,8.80
2018-01-08T08:29:10.326Z,8.50
2018-01-08T08:30:12.841Z,8.35
2018-01-08T08:31:15.379Z,8.05
2018-01-08T08:32:18.664Z,8.70
2018-01-08T08:33:21.981Z,8.70
2018-01-08T08:34:24.505Z,7.72
2018-01-08T08:35:27.021Z,8.13
2018-01-08T08:36:29.543Z,7.00
2018-01-08T08:37:32.841Z,8.18
2018-01-08T08:38:36.157Z,7.75
2018-01-08T08:39:38.677Z,8.02
2018-01-08T08:40:41.200Z,7.72
2018-01-08T08:41:43.717Z,8.35
2018-01-08T08:42:47.027Z,7.90
2018-01-08T08:43:49.613Z,8.13
2018-01-08T08:44:52.132Z,8.32
2018-01-08T08:45:55.439Z,8.90
2018-01-08T08:46:57.969Z,8.57
2018-01-08T08:48:00.484Z,9.27
2018-01-08T08:49:03.145Z,8.32
2018-01-08T08:50:05.653Z,8.32
2018-01-08T08:51:08.165Z,7.90
2018-01-08T08:52:10.689Z,7.85
2018-01-08T08:53:13.212Z,8.43
2018-01-08T08:54:15.761Z,8.38
2018-01-08T08:55:18.276Z,9.40
2018-01-08T08:56:20.812Z,8.57
2018-01-08T08:57:23.320Z,8.13
2018-01-08T08:58:25.844Z,9.88
2018-01-08T08:59:28.405Z,18.87
2018-01-08T09:00:30.921Z,10.00
2018-01-08T09:01:33.483Z,8.85
2018-01-08T09:02:36.001Z,8.82
2018-01-08T09:03:38.856Z,7.57
2018-01-08T09:04:42.143Z,8.10
2018-01-08T09:05:44.724Z,8.45
2018-01-08T09:06:47.288Z,8.55
2018-01-08T09:07:49.830Z,8.80
2018-01-08T09:08:53.117Z,8.43
2018-01-08T09:09:56.422Z,9.43
2018-01-08T09:10:58.958Z,8.30
2018-01-08T09:12:01.676Z,9.60
2018-01-08T09:13:04.194Z,8.82
2018-01-08T09:14:06.739Z,9.05
2018-01-08T09:15:09.263Z,8.60
2018-01-08T09:16:11.780Z,9.00
2018-01-08T09:17:14.369Z,8.20
2018-01-08T09:18:17.650Z,9.15
2018-01-08T09:19:20.182Z,8.45
2018-01-08T09:20:22.714Z,9.25
2018-01-08T09:21:25.235Z,9.00
2018-01-08T09:22:27.790Z,9.52
2018-01-08T09:23:30.326Z,9.07
2018-01-08T09:24:32.853Z,10.05
2018-01-08T09:25:36.142Z,8.80
2018-01-08T09:26:38.675Z,9.55
2018-01-08T09:27:41.231Z,9.50
2018-01-08T09:28:43.753Z,8.80
2018-01-08T09:29:46.274Z,9.88
2018-01-08T09:30:48.800Z,9.23
2018-01-08T09:31:51.337Z,9.60
2018-01-08T09:32:54.655Z,9.45
2018-01-08T09:33:57.182Z,9.73
2018-01-08T09:35:00.473Z,9.48
2018-01-08T09:36:02.990Z,9.82
2018-01-08T09:37:05.516Z,10.05
2018-01-08T09:38:08.093Z,10.43
2018-01-08T09:39:10.630Z,10.80
2018-01-08T09:40:13.912Z,9.82
2018-01-08T09:41:17.200Z,9.55
2018-01-08T09:42:20.488Z,9.40
2018-01-08T09:43:23.047Z,10.32
2018-01-08T09:44:26.338Z,9.73
2018-01-08T09:45:28.901Z,10.65
2018-01-08T09:46:32.189Z,10.15
2018-01-08T09:47:34.720Z,10.40
2018-01-08T09:48:37.279Z,9.13
2018-01-08T09:49:39.808Z,9.35
2018-01-08T09:50:42.374Z,10.13
2018-01-08T09:51:44.898Z,9.15
2018-01-08T09:52:47.422Z,9.65
2018-01-08T09:53:49.948Z,8.98
2018-01-08T09:54:53.242Z,10.25
2018-01-08T09:55:55.792Z,9.32
2018-01-08T09:56:59.089Z,9.73
2018-01-08T09:58:01.616Z,9.30
2018-01-08T09:59:04.188Z,9.75
2018-01-08T10:00:06.713Z,10.20
2018-01-08T10:01:09.273Z,9.80
2018-01-08T10:02:11.800Z,10.27
2018-01-08T10:03:26.921Z,11.82
2018-01-08T10:04:41.337Z,10.48
2018-01-08T10:05:55.656Z,10.40
2018-01-08T10:07:10.652Z,7.90
2018-01-08T10:08:25.018Z,8.63
2018-01-08T10:09:39.393Z,9.57
2018-01-08T10:10:54.518Z,8.85
2018-01-08T10:12:08.932Z,9.07
2018-01-08T10:13:23.228Z,8.93
2018-01-08T10:14:37.686Z,9.32
2018-01-08T10:15:52.025Z,8.82
2018-01-08T10:17:07.217Z,9.63
2018-01-08T10:18:21.430Z,8.77
2018-01-08T10:19:36.528Z,9.23
2018-01-08T10:20:39.041Z,8.75
2018-01-08T10:21:41.554Z,10.25
2018-01-08T10:22:44.073Z,9.55
2018-01-08T10:23:46.731Z,9.18
2018-01-08T10:24:49.267Z,10.90
2018-01-08T10:25:51.777Z,9.90
2018-01-08T10:26:54.293Z,8.75
2018-01-08T10:27:56.812Z,9.75
2018-01-08T10:28:59.377Z,8.82
2018-01-08T10:30:01.894Z,9.07
2018-01-08T10:31:04.413Z,9.80
2018-01-08T10:32:06.928Z,10.45
2018-01-08T10:33:09.436Z,10.77
2018-01-08T10:34:12.002Z,10.57
2018-01-08T10:35:14.517Z,9.63
2018-01-08T10:36:17.037Z,10.43
2018-01-08T10:37:19.557Z,10.18
2018-01-08T10:38:22.103Z,11.95
2018-01-08T10:39:24.664Z,10.30
2018-01-08T10:40:27.186Z,10.68
2018-01-08T10:41:35.286Z,10.15
2018-01-08T10:42:43.647Z,9.65
2018-01-08T10:43:51.917Z,9.90
2018-01-08T10:45:00.054Z,10.07
2018-01-08T10:46:08.345Z,9.75
2018-01-08T10:47:16.535Z,9.60
2018-01-08T10:48:24.752Z,9.65
2018-01-08T10:49:32.961Z,9.88
2018-01-08T10:50:41.047Z,9.80
2018-01-08T10:51:43.071Z,9.30
2018-01-08T10:52:48.206Z,9.95
2018-01-08T10:53:51.585Z,10.10
2018-01-08T10:55:06.707Z,9.07
2018-01-08T10:56:09.246Z,8.82
2018-01-08T10:57:11.806Z,8.77
2018-01-08T10:58:14.329Z,9.52
2018-01-08T10:59:16.844Z,8.88
2018-01-08T11:00:19.360Z,9.32
2018-01-08T11:01:28.310Z,8.40
2018-01-08T11:02:36.505Z,9.45
2018-01-08T11:05:10.640Z,8.93
2018-01-08T11:06:13.189Z,9.30
2018-01-08T11:07:15.737Z,8.43
2018-01-08T11:08:18.246Z,8.68
2018-01-08T11:09:20.766Z,8.23
2018-01-08T11:10:23.284Z,8.35
2018-01-08T11:11:25.828Z,8.80
2018-01-08T11:12:28.346Z,8.15
2018-01-08T11:13:30.868Z,7.95
2018-01-08T11:14:33.439Z,8.90
2018-01-08T11:15:35.989Z,8.65
2018-01-08T11:16:38.511Z,9.23
2018-01-08T11:17:41.803Z,9.07
2018-01-08T11:18:45.098Z,8.60
2018-01-08T11:19:47.654Z,7.65
2018-01-08T11:20:50.968Z,7.50
2018-01-08T11:21:53.479Z,7.70
2018-01-08T11:22:56.043Z,8.43
2018-01-08T11:23:58.560Z,7.97
2018-01-08T11:25:01.074Z,8.30
2018-01-08T11:26:03.588Z,6.85
2018-01-08T11:27:06.189Z,8.13
2018-01-08T11:28:08.749Z,7.45
2018-01-08T11:29:11.265Z,7.85
2018-01-08T11:30:13.781Z,7.82
2018-01-08T11:31:16.314Z,7.93
2018-01-08T11:32:18.834Z,7.47
2018-01-08T11:33:21.385Z,6.97
2018-01-08T11:34:23.911Z,7.47
2018-01-08T11:35:26.437Z,6.75
2018-01-08T11:36:28.969Z,7.35
2018-01-08T11:37:31.519Z,7.37
2018-01-08T11:38:34.083Z,7.18
2018-01-08T11:39:36.644Z,7.53
2018-01-08T11:40:39.161Z,7.85
2018-01-08T11:41:41.681Z,7.50
2018-01-08T11:42:44.208Z,7.15
2018-01-08T11:43:46.733Z,8.40
2018-01-08T11:44:49.300Z,7.75
2018-01-08T11:45:52.603Z,7.75
2018-01-08T11:46:55.131Z,7.55
2018-01-08T11:47:57.645Z,7.10
2018-01-08T11:49:00.162Z,7.12
2018-01-08T11:50:02.712Z,7.53
2018-01-08T11:51:06.013Z,7.50
2018-01-08T11:52:08.526Z,7.22
2018-01-08T11:53:11.046Z,7.72
2018-01-08T11:54:13.558Z,7.00
2018-01-08T11:55:16.113Z,6.62
2018-01-08T11:56:18.633Z,8.13
2018-01-08T11:57:21.154Z,7.53
2018-01-08T11:58:23.694Z,9.00
2018-01-08T11:59:26.206Z,7.55
2018-01-08T12:00:29.535Z,8.38
2018-01-08T12:01:32.097Z,7.18
2018-01-08T12:02:34.658Z,8.35
2018-01-08T12:03:37.193Z,8.00
2018-01-08T12:04:40.480Z,7.35
2018-01-08T12:05:43.014Z,7.43
2018-01-08T12:06:45.563Z,8.18
2018-01-08T12:07:48.117Z,7.93
2018-01-08T12:08:50.638Z,7.95
2018-01-08T12:09:53.925Z,6.85
2018-01-08T12:10:57.208Z,7.32
2018-01-08T12:12:00.495Z,7.87
2018-01-08T12:13:03.820Z,8.52
2018-01-08T12:14:06.371Z,7.37
2018-01-08T12:15:08.981Z,6.90
2018-01-08T12:16:11.501Z,13.50
2018-01-08T12:17:14.061Z,11.23
2018-01-08T12:18:16.587Z,8.25
2018-01-08T12:19:19.142Z,7.07
2018-01-08T12:20:21.654Z,8.10
2018-01-08T12:21:24.947Z,10.32
2018-01-08T12:22:27.468Z,11.07
2018-01-08T12:23:29.982Z,8.52
2018-01-08T12:24:32.530Z,8.07
2018-01-08T12:25:35.816Z,7.53
2018-01-08T12:26:38.354Z,9.23
2018-01-08T12:27:40.868Z,8.30
2018-01-08T12:28:43.434Z,8.25
2018-01-08T12:29:45.984Z,8.88
2018-01-08T12:30:48.589Z,9.05
2018-01-08T12:31:51.113Z,8.13
2018-01-08T12:32:54.415Z,9.07
2018-01-08T12:33:56.942Z,7.47
2018-01-08T12:34:59.468Z,8.30
2018-01-08T12:36:02.023Z,8.63
2018-01-08T12:37:04.541Z,8.57
2018-01-08T12:38:07.108Z,8.65
2018-01-08T12:39:09.636Z,8.63
2018-01-08T12:40:12.160Z,8.00
2018-01-08T12:41:15.449Z,10.85
2018-01-08T12:42:18.733Z,7.65
2018-01-08T12:43:21.302Z,7.97
2018-01-08T12:44:23.814Z,8.55
2018-01-08T12:45:26.336Z,8.40
2018-01-08T12:46:28.864Z,9.35
2018-01-08T12:47:31.382Z,8.30
2018-01-08T12:48:33.949Z,7.87
2018-01-08T12:49:36.466Z,8.55
2018-01-08T12:50:38.988Z,8.60
2018-01-08T12:51:41.512Z,9.70
2018-01-08T12:52:44.789Z,8.52
2018-01-08T12:53:47.351Z,8.98
2018-01-08T12:54:49.870Z,8.85
2018-01-08T12:55:52.380Z,8.73
2018-01-08T12:56:54.901Z,9.65
2018-01-08T12:57:57.420Z,8.65
2018-01-08T12:59:00.738Z,9.13
2018-01-08T13:00:03.266Z,7.95
2018-01-08T13:01:05.781Z,9.02
2018-01-08T13:02:08.296Z,9.10
2018-01-08T13:03:10.817Z,8.85
2018-01-08T13:04:13.444Z,10.23
2018-01-08T13:05:16.757Z,9.55
2018-01-08T13:06:19.276Z,10.32
2018-01-08T13:07:21.806Z,9.10
2018-01-08T13:08:24.313Z,9.02
2018-01-08T13:10:33.599Z,8.98
2018-01-08T13:11:36.152Z,10.68
2018-01-08T13:12:38.669Z,9.95
2018-01-08T13:13:41.198Z,8.95
2018-01-08T13:14:43.757Z,8.93
2018-01-08T13:15:46.281Z,9.23
2018-01-08T13:16:49.576Z,10.20
2018-01-08T13:17:52.900Z,10.10
2018-01-08T13:18:55.417Z,9.02
2018-01-08T13:19:58.697Z,11.90
2018-01-08T13:21:01.984Z,11.52
2018-01-08T13:22:05.277Z,10.40
2018-01-08T13:23:08.612Z,10.32
2018-01-08T13:24:11.147Z,10.20
2018-01-08T13:25:13.699Z,9.73
2018-01-08T13:26:16.984Z,13.05
2018-01-08T13:27:19.522Z,10.73
2018-01-08T13:28:22.085Z,10.65
2018-01-08T13:29:24.603Z,10.85
2018-01-08T13:30:27.124Z,11.23
2018-01-08T13:31:29.645Z,12.18
2018-01-08T13:32:32.175Z,11.68
2018-01-08T13:33:35.494Z,10.75
2018-01-08T13:34:38.046Z,11.00
2018-01-08T13:35:40.561Z,9.68
2018-01-08T13:36:43.078Z,11.82
2018-01-08T13:37:45.616Z,12.02
2018-01-08T13:38:48.905Z,10.13
2018-01-08T13:39:51.472Z,10.38
2018-01-08T13:40:54.006Z,10.43
2018-01-08T13:41:56.537Z,10.73
2018-01-08T13:42:59.062Z,10.13
2018-01-08T13:44:02.358Z,9.98
2018-01-08T13:45:07.796Z,10.55
2018-01-08T13:46:10.357Z,10.32
2018-01-08T13:47:13.028Z,10.60
2018-01-08T13:48:15.552Z,11.23
2018-01-08T13:49:18.078Z,10.80
2018-01-08T13:50:20.620Z,10.80
2018-01-08T13:51:23.950Z,10.75
2018-01-08T13:52:26.469Z,10.98
2018-01-08T13:53:29.753Z,9.85
2018-01-08T13:54:33.028Z,11.15
2018-01-08T13:55:36.324Z,10.35
2018-01-08T13:56:38.898Z,10.23
2018-01-08T13:57:41.422Z,11.25